sensor_id;sensor_type;location;lat;lon;timestamp;temperature;humidity
30628;DHT22;17394;50.890;4.724;2022-12-18T00:01:41;-6.80;99.90
30628;DHT22;17394;50.890;4.724;2022-12-18T00:04:16;-6.80;99.90
30628;DHT22;17394;50.890;4.724;2022-12-18T00:06:44;-6.80;99.90
30628;DHT22;17394;50.890;4.724;2022-12-18T00:09:10;-6.50;99.90
30628;DHT22;17394;50.890;4.724;2022-12-18T00:11:36;-6.90;99.90
30628;DHT22;17394;50.890;4.724;2022-12-18T00:14:02;-6.90;99.90
30628;DHT22;17394;50.890;4.724;2022-12-18T00:16:28;-6.90;99.90
30628;DHT22;17394;50.890;4.724;2022-12-18T00:18:59;-7.00;99.90
30628;DHT22;17394;50.890;4.724;2022-12-18T00:21:27;-7.00;99.90
30628;DHT22;17394;50.890;4.724;2022-12-18T00:23:53;-7.00;99.90
30628;DHT22;17394;50.890;4.724;2022-12-18T00:26:28;-7.10;99.90
30628;DHT22;17394;50.890;4.724;2022-12-18T00:28:54;-7.10;99.90
30628;DHT22;17394;50.890;4.724;2022-12-18T00:31:23;-7.10;99.90
30628;DHT22;17394;50.890;4.724;2022-12-18T00:33:49;-7.20;99.90
30628;DHT22;17394;50.890;4.724;2022-12-18T00:36:18;-7.20;99.90
30628;DHT22;17394;50.890;4.724;2022-12-18T00:38:45;-7.20;99.90
30628;DHT22;17394;50.890;4.724;2022-12-18T00:41:12;-6.80;99.90
30628;DHT22;17394;50.890;4.724;2022-12-18T00:43:39;-7.30;99.90
30628;DHT22;17394;50.890;4.724;2022-12-18T00:46:06;-7.20;99.90
30628;DHT22;17394;50.890;4.724;2022-12-18T00:48:32;-7.30;99.90
30628;DHT22;17394;50.890;4.724;2022-12-18T00:50:57;-7.30;99.90
30628;DHT22;17394;50.890;4.724;2022-12-18T00:53:23;-7.30;99.90
30628;DHT22;17394;50.890;4.724;2022-12-18T00:55:49;-7.10;99.90
30628;DHT22;17394;50.890;4.724;2022-12-18T00:58:16;-7.40;99.90
30628;DHT22;17394;50.890;4.724;2022-12-18T01:00:42;-7.40;99.90
30628;DHT22;17394;50.890;4.724;2022-12-18T01:03:09;-7.40;99.90
30628;DHT22;17394;50.890;4.724;2022-12-18T01:05:40;-7.40;99.90
30628;DHT22;17394;50.890;4.724;2022-12-18T01:08:06;-7.40;99.90
30628;DHT22;17394;50.890;4.724;2022-12-18T01:10:32;-7.40;99.90
30628;DHT22;17394;50.890;4.724;2022-12-18T01:12:58;-7.40;99.90
30628;DHT22;17394;50.890;4.724;2022-12-18T01:15:23;-7.40;99.90
30628;DHT22;17394;50.890;4.724;2022-12-18T01:17:52;-7.40;99.90
30628;DHT22;17394;50.890;4.724;2022-12-18T01:20:17;-7.40;99.90
30628;DHT22;17394;50.890;4.724;2022-12-18T01:22:43;-7.40;99.90
30628;DHT22;17394;50.890;4.724;2022-12-18T01:25:09;-7.40;99.90
30628;DHT22;17394;50.890;4.724;2022-12-18T01:27:35;-7.50;99.90
30628;DHT22;17394;50.890;4.724;2022-12-18T01:30:01;-7.40;99.90
30628;DHT22;17394;50.890;4.724;2022-12-18T01:32:30;-7.70;99.90
30628;DHT22;17394;50.890;4.724;2022-12-18T01:34:55;-7.40;99.90
30628;DHT22;17394;50.890;4.724;2022-12-18T01:37:21;-7.50;99.90
30628;DHT22;17394;50.890;4.724;2022-12-18T01:39:47;-7.50;99.90
30628;DHT22;17394;50.890;4.724;2022-12-18T01:42:14;-7.50;99.90
30628;DHT22;17394;50.890;4.724;2022-12-18T01:50:00;-7.50;99.90
30628;DHT22;17394;50.890;4.724;2022-12-18T01:52:29;-6.80;99.90
30628;DHT22;17394;50.890;4.724;2022-12-18T01:54:57;-7.50;99.90
30628;DHT22;17394;50.890;4.724;2022-12-18T01:57:24;-7.60;99.90
30628;DHT22;17394;50.890;4.724;2022-12-18T01:59:52;-7.60;99.90
30628;DHT22;17394;50.890;4.724;2022-12-18T02:02:20;-7.60;99.90
30628;DHT22;17394;50.890;4.724;2022-12-18T02:04:47;-7.60;99.90
30628;DHT22;17394;50.890;4.724;2022-12-18T02:07:28;-7.60;99.90
30628;DHT22;17394;50.890;4.724;2022-12-18T02:10:20;-7.60;99.90
30628;DHT22;17394;50.890;4.724;2022-12-18T02:12:58;-7.60;99.90
30628;DHT22;17394;50.890;4.724;2022-12-18T02:18:13;-7.60;99.90
30628;DHT22;17394;50.890;4.724;2022-12-18T02:20:46;-7.60;99.90
30628;DHT22;17394;50.890;4.724;2022-12-18T02:26:18;-7.60;99.90
30628;DHT22;17394;50.890;4.724;2022-12-18T02:29:10;-7.50;99.90
30628;DHT22;17394;50.890;4.724;2022-12-18T02:31:42;-7.40;99.90
30628;DHT22;17394;50.890;4.724;2022-12-18T02:34:09;-7.40;99.90
30628;DHT22;17394;50.890;4.724;2022-12-18T02:36:38;-7.40;99.90
30628;DHT22;17394;50.890;4.724;2022-12-18T02:39:07;-7.40;99.90
30628;DHT22;17394;50.890;4.724;2022-12-18T02:41:34;-7.50;99.90
30628;DHT22;17394;50.890;4.724;2022-12-18T02:44:07;-7.50;99.90
30628;DHT22;17394;50.890;4.724;2022-12-18T02:46:40;-7.50;99.90
30628;DHT22;17394;50.890;4.724;2022-12-18T02:51:48;-7.60;99.90
30628;DHT22;17394;50.890;4.724;2022-12-18T02:54:41;-7.60;99.90
30628;DHT22;17394;50.890;4.724;2022-12-18T03:00:02;-7.70;99.90
30628;DHT22;17394;50.890;4.724;2022-12-18T03:08:02;-7.80;99.90
30628;DHT22;17394;50.890;4.724;2022-12-18T03:10:32;-7.80;99.90
30628;DHT22;17394;50.890;4.724;2022-12-18T03:15:31;-7.80;99.90
30628;DHT22;17394;50.890;4.724;2022-12-18T03:18:07;-7.80;99.90
30628;DHT22;17394;50.890;4.724;2022-12-18T03:20:36;-7.90;99.90
30628;DHT22;17394;50.890;4.724;2022-12-18T03:23:07;-7.90;99.90
30628;DHT22;17394;50.890;4.724;2022-12-18T03:25:37;-7.90;99.90
30628;DHT22;17394;50.890;4.724;2022-12-18T03:28:08;-7.90;99.90
30628;DHT22;17394;50.890;4.724;2022-12-18T03:30:37;-8.10;99.90
30628;DHT22;17394;50.890;4.724;2022-12-18T03:33:08;-8.00;99.90
30628;DHT22;17394;50.890;4.724;2022-12-18T03:35:39;-8.00;99.90
30628;DHT22;17394;50.890;4.724;2022-12-18T03:38:06;-8.00;99.90
30628;DHT22;17394;50.890;4.724;2022-12-18T03:40:43;-8.00;99.90
30628;DHT22;17394;50.890;4.724;2022-12-18T03:46:16;-7.90;99.90
30628;DHT22;17394;50.890;4.724;2022-12-18T03:48:52;-8.00;99.90
30628;DHT22;17394;50.890;4.724;2022-12-18T03:51:27;-8.00;99.90
30628;DHT22;17394;50.890;4.724;2022-12-18T03:53:58;-8.00;99.90
30628;DHT22;17394;50.890;4.724;2022-12-18T03:56:29;-8.00;99.90
30628;DHT22;17394;50.890;4.724;2022-12-18T03:58:57;-8.00;99.90
30628;DHT22;17394;50.890;4.724;2022-12-18T04:01:32;-8.00;99.90
30628;DHT22;17394;50.890;4.724;2022-12-18T04:04:00;-8.00;99.90
30628;DHT22;17394;50.890;4.724;2022-12-18T04:06:28;-8.00;99.90
30628;DHT22;17394;50.890;4.724;2022-12-18T04:08:54;-7.90;99.90
30628;DHT22;17394;50.890;4.724;2022-12-18T04:11:21;-8.00;99.90
30628;DHT22;17394;50.890;4.724;2022-12-18T04:13:47;-8.10;99.90
30628;DHT22;17394;50.890;4.724;2022-12-18T04:16:13;-8.10;99.90
30628;DHT22;17394;50.890;4.724;2022-12-18T04:18:39;-8.10;99.90
30628;DHT22;17394;50.890;4.724;2022-12-18T04:21:04;-8.10;99.90
30628;DHT22;17394;50.890;4.724;2022-12-18T04:23:30;-8.10;99.90
30628;DHT22;17394;50.890;4.724;2022-12-18T04:25:56;-8.10;99.90
30628;DHT22;17394;50.890;4.724;2022-12-18T04:28:22;-8.10;99.90
30628;DHT22;17394;50.890;4.724;2022-12-18T04:30:48;-8.10;99.90
30628;DHT22;17394;50.890;4.724;2022-12-18T04:33:14;-8.10;99.90
30628;DHT22;17394;50.890;4.724;2022-12-18T04:35:40;-8.10;99.90
30628;DHT22;17394;50.890;4.724;2022-12-18T04:38:07;-8.20;99.90
30628;DHT22;17394;50.890;4.724;2022-12-18T04:40:34;-8.20;99.90
30628;DHT22;17394;50.890;4.724;2022-12-18T04:43:00;-8.30;99.90
30628;DHT22;17394;50.890;4.724;2022-12-18T04:45:26;-8.20;99.90
30628;DHT22;17394;50.890;4.724;2022-12-18T04:47:51;-8.20;99.90
30628;DHT22;17394;50.890;4.724;2022-12-18T04:50:17;-8.30;99.90
30628;DHT22;17394;50.890;4.724;2022-12-18T04:52:43;-8.30;99.90
30628;DHT22;17394;50.890;4.724;2022-12-18T04:55:09;-7.80;99.90
30628;DHT22;17394;50.890;4.724;2022-12-18T04:57:35;-8.30;99.90
30628;DHT22;17394;50.890;4.724;2022-12-18T05:00:01;-8.30;99.90
30628;DHT22;17394;50.890;4.724;2022-12-18T05:02:27;-8.30;99.90
30628;DHT22;17394;50.890;4.724;2022-12-18T05:04:53;-7.90;99.90
30628;DHT22;17394;50.890;4.724;2022-12-18T05:07:18;-8.30;99.90
30628;DHT22;17394;50.890;4.724;2022-12-18T05:09:44;-8.30;99.90
30628;DHT22;17394;50.890;4.724;2022-12-18T05:12:10;-8.30;99.90
30628;DHT22;17394;50.890;4.724;2022-12-18T05:14:36;-8.30;99.90
30628;DHT22;17394;50.890;4.724;2022-12-18T05:17:01;-8.30;99.90
30628;DHT22;17394;50.890;4.724;2022-12-18T05:19:27;-8.30;99.90
30628;DHT22;17394;50.890;4.724;2022-12-18T05:21:53;-8.30;99.90
30628;DHT22;17394;50.890;4.724;2022-12-18T05:24:19;-8.30;99.90
30628;DHT22;17394;50.890;4.724;2022-12-18T05:26:45;-8.20;99.90
30628;DHT22;17394;50.890;4.724;2022-12-18T05:29:11;-8.10;99.90
30628;DHT22;17394;50.890;4.724;2022-12-18T05:31:38;-8.30;99.90
30628;DHT22;17394;50.890;4.724;2022-12-18T05:34:04;-8.40;99.90
30628;DHT22;17394;50.890;4.724;2022-12-18T05:36:30;-7.50;99.90
30628;DHT22;17394;50.890;4.724;2022-12-18T05:38:56;-8.30;99.90
30628;DHT22;17394;50.890;4.724;2022-12-18T05:41:22;-8.20;99.90
30628;DHT22;17394;50.890;4.724;2022-12-18T05:43:48;-8.30;99.90
30628;DHT22;17394;50.890;4.724;2022-12-18T05:46:16;-8.20;99.90
30628;DHT22;17394;50.890;4.724;2022-12-18T05:48:43;-8.20;99.90
30628;DHT22;17394;50.890;4.724;2022-12-18T05:51:14;-8.00;99.90
30628;DHT22;17394;50.890;4.724;2022-12-18T05:53:41;-8.20;99.90
30628;DHT22;17394;50.890;4.724;2022-12-18T05:56:16;-8.20;99.90
30628;DHT22;17394;50.890;4.724;2022-12-18T05:58:42;-8.20;99.90
30628;DHT22;17394;50.890;4.724;2022-12-18T06:01:14;-8.20;99.90
30628;DHT22;17394;50.890;4.724;2022-12-18T06:03:40;-8.20;99.90
30628;DHT22;17394;50.890;4.724;2022-12-18T06:06:17;-8.20;99.90
30628;DHT22;17394;50.890;4.724;2022-12-18T06:08:44;-8.20;99.90
30628;DHT22;17394;50.890;4.724;2022-12-18T06:11:09;-8.20;99.90
30628;DHT22;17394;50.890;4.724;2022-12-18T06:13:35;-8.10;99.90
30628;DHT22;17394;50.890;4.724;2022-12-18T06:16:05;-8.10;99.90
30628;DHT22;17394;50.890;4.724;2022-12-18T06:18:31;-8.20;99.90
30628;DHT22;17394;50.890;4.724;2022-12-18T06:20:58;-8.20;99.90
30628;DHT22;17394;50.890;4.724;2022-12-18T06:23:24;-8.20;99.90
30628;DHT22;17394;50.890;4.724;2022-12-18T06:25:50;-8.20;99.90
30628;DHT22;17394;50.890;4.724;2022-12-18T06:28:16;-8.20;99.90
30628;DHT22;17394;50.890;4.724;2022-12-18T06:30:47;-8.30;99.90
30628;DHT22;17394;50.890;4.724;2022-12-18T06:33:14;-8.30;99.90
30628;DHT22;17394;50.890;4.724;2022-12-18T06:35:40;-8.30;99.90
30628;DHT22;17394;50.890;4.724;2022-12-18T06:38:06;-8.30;99.90
30628;DHT22;17394;50.890;4.724;2022-12-18T06:40:32;-8.30;99.90
30628;DHT22;17394;50.890;4.724;2022-12-18T06:42:58;-8.30;99.90
30628;DHT22;17394;50.890;4.724;2022-12-18T06:45:24;-8.30;99.90
30628;DHT22;17394;50.890;4.724;2022-12-18T06:47:51;-8.30;99.90
30628;DHT22;17394;50.890;4.724;2022-12-18T06:50:17;-8.20;99.90
30628;DHT22;17394;50.890;4.724;2022-12-18T06:52:42;-8.20;99.90
30628;DHT22;17394;50.890;4.724;2022-12-18T06:55:10;-8.20;99.90
30628;DHT22;17394;50.890;4.724;2022-12-18T06:57:36;-8.10;99.90
30628;DHT22;17394;50.890;4.724;2022-12-18T07:00:03;-8.10;99.90
30628;DHT22;17394;50.890;4.724;2022-12-18T07:02:30;-8.00;99.90
30628;DHT22;17394;50.890;4.724;2022-12-18T07:04:56;-8.00;99.90
30628;DHT22;17394;50.890;4.724;2022-12-18T07:07:22;-7.90;99.90
30628;DHT22;17394;50.890;4.724;2022-12-18T07:09:49;-7.90;99.90
30628;DHT22;17394;50.890;4.724;2022-12-18T07:12:15;-7.80;99.90
30628;DHT22;17394;50.890;4.724;2022-12-18T07:14:41;-7.80;99.90
30628;DHT22;17394;50.890;4.724;2022-12-18T07:17:07;-7.80;99.90
30628;DHT22;17394;50.890;4.724;2022-12-18T07:19:33;-7.80;99.90
30628;DHT22;17394;50.890;4.724;2022-12-18T07:21:59;-7.70;99.90
30628;DHT22;17394;50.890;4.724;2022-12-18T07:24:25;-7.70;99.90
30628;DHT22;17394;50.890;4.724;2022-12-18T07:26:51;-7.60;99.90
30628;DHT22;17394;50.890;4.724;2022-12-18T07:29:17;-7.40;99.90
30628;DHT22;17394;50.890;4.724;2022-12-18T07:31:43;-7.50;99.90
30628;DHT22;17394;50.890;4.724;2022-12-18T07:34:13;-7.50;99.90
30628;DHT22;17394;50.890;4.724;2022-12-18T07:36:40;-7.50;99.90
30628;DHT22;17394;50.890;4.724;2022-12-18T07:39:06;-7.40;99.90
30628;DHT22;17394;50.890;4.724;2022-12-18T07:41:32;-7.40;99.90
30628;DHT22;17394;50.890;4.724;2022-12-18T07:43:58;-7.40;99.90
30628;DHT22;17394;50.890;4.724;2022-12-18T07:46:24;-7.30;99.90
30628;DHT22;17394;50.890;4.724;2022-12-18T07:48:49;-7.30;99.90
30628;DHT22;17394;50.890;4.724;2022-12-18T07:51:15;-7.30;99.90
30628;DHT22;17394;50.890;4.724;2022-12-18T07:53:41;-7.30;99.90
30628;DHT22;17394;50.890;4.724;2022-12-18T07:56:11;-7.40;99.90
30628;DHT22;17394;50.890;4.724;2022-12-18T07:58:37;-7.40;99.90
30628;DHT22;17394;50.890;4.724;2022-12-18T08:01:11;-7.30;99.90
30628;DHT22;17394;50.890;4.724;2022-12-18T08:03:39;-7.40;99.90
30628;DHT22;17394;50.890;4.724;2022-12-18T08:06:07;-7.30;99.90
30628;DHT22;17394;50.890;4.724;2022-12-18T08:08:34;-7.20;99.90
30628;DHT22;17394;50.890;4.724;2022-12-18T08:11:00;-7.20;99.90
30628;DHT22;17394;50.890;4.724;2022-12-18T08:13:27;-7.10;99.90
30628;DHT22;17394;50.890;4.724;2022-12-18T08:16:01;-7.10;99.90
30628;DHT22;17394;50.890;4.724;2022-12-18T08:18:27;-7.00;99.90
30628;DHT22;17394;50.890;4.724;2022-12-18T08:20:53;-6.90;99.90
30628;DHT22;17394;50.890;4.724;2022-12-18T08:23:19;-6.90;99.90
30628;DHT22;17394;50.890;4.724;2022-12-18T08:25:45;-6.80;99.90
30628;DHT22;17394;50.890;4.724;2022-12-18T08:28:11;-6.70;99.90
30628;DHT22;17394;50.890;4.724;2022-12-18T08:30:36;-6.60;99.90
30628;DHT22;17394;50.890;4.724;2022-12-18T08:33:03;-6.60;99.90
30628;DHT22;17394;50.890;4.724;2022-12-18T08:35:29;-6.40;99.90
30628;DHT22;17394;50.890;4.724;2022-12-18T08:37:55;-6.30;99.90
30628;DHT22;17394;50.890;4.724;2022-12-18T08:40:20;-6.20;99.90
30628;DHT22;17394;50.890;4.724;2022-12-18T08:42:46;-6.10;99.90
30628;DHT22;17394;50.890;4.724;2022-12-18T08:45:30;-6.00;99.90
30628;DHT22;17394;50.890;4.724;2022-12-18T08:47:56;-5.80;99.90
30628;DHT22;17394;50.890;4.724;2022-12-18T08:50:22;-5.50;99.90
30628;DHT22;17394;50.890;4.724;2022-12-18T08:52:48;-5.60;99.90
30628;DHT22;17394;50.890;4.724;2022-12-18T08:55:13;-5.50;99.90
30628;DHT22;17394;50.890;4.724;2022-12-18T08:57:39;-5.40;99.90
30628;DHT22;17394;50.890;4.724;2022-12-18T09:00:05;-5.30;99.90
30628;DHT22;17394;50.890;4.724;2022-12-18T09:02:31;-5.20;99.90
30628;DHT22;17394;50.890;4.724;2022-12-18T09:04:57;-5.00;99.90
30628;DHT22;17394;50.890;4.724;2022-12-18T09:07:23;-4.90;99.90
30628;DHT22;17394;50.890;4.724;2022-12-18T09:09:48;-4.80;99.90
30628;DHT22;17394;50.890;4.724;2022-12-18T09:12:14;-4.40;99.90
30628;DHT22;17394;50.890;4.724;2022-12-18T09:14:40;-4.10;99.90
30628;DHT22;17394;50.890;4.724;2022-12-18T09:17:06;-4.30;99.90
30628;DHT22;17394;50.890;4.724;2022-12-18T09:19:32;-4.20;99.90
30628;DHT22;17394;50.890;4.724;2022-12-18T09:21:58;-4.10;99.90
30628;DHT22;17394;50.890;4.724;2022-12-18T09:24:24;-3.90;99.90
30628;DHT22;17394;50.890;4.724;2022-12-18T09:26:53;-3.80;99.90
30628;DHT22;17394;50.890;4.724;2022-12-18T09:29:20;-3.70;99.90
30628;DHT22;17394;50.890;4.724;2022-12-18T09:31:46;-3.50;99.90
30628;DHT22;17394;50.890;4.724;2022-12-18T09:34:12;-3.40;99.90
30628;DHT22;17394;50.890;4.724;2022-12-18T09:36:38;-3.30;99.90
30628;DHT22;17394;50.890;4.724;2022-12-18T09:39:03;-3.00;99.90
30628;DHT22;17394;50.890;4.724;2022-12-18T09:46:54;-2.90;99.90
30628;DHT22;17394;50.890;4.724;2022-12-18T09:49:26;-2.80;99.90
30628;DHT22;17394;50.890;4.724;2022-12-18T09:51:58;-2.80;99.90
30628;DHT22;17394;50.890;4.724;2022-12-18T09:54:36;-2.80;99.90
30628;DHT22;17394;50.890;4.724;2022-12-18T09:57:04;-2.70;99.90
30628;DHT22;17394;50.890;4.724;2022-12-18T09:59:38;-2.60;99.90
30628;DHT22;17394;50.890;4.724;2022-12-18T10:02:15;-2.60;99.90
30628;DHT22;17394;50.890;4.724;2022-12-18T10:04:41;-2.50;99.90
30628;DHT22;17394;50.890;4.724;2022-12-18T10:10:12;-2.30;99.90
30628;DHT22;17394;50.890;4.724;2022-12-18T10:16:30;-2.20;99.90
30628;DHT22;17394;50.890;4.724;2022-12-18T10:22:16;-2.00;99.90
30628;DHT22;17394;50.890;4.724;2022-12-18T10:27:30;-1.90;99.90
30628;DHT22;17394;50.890;4.724;2022-12-18T10:29:57;-1.90;99.90
30628;DHT22;17394;50.890;4.724;2022-12-18T10:32:26;-1.80;99.90
30628;DHT22;17394;50.890;4.724;2022-12-18T10:34:55;-2.20;99.90
30628;DHT22;17394;50.890;4.724;2022-12-18T10:37:26;-1.80;99.90
30628;DHT22;17394;50.890;4.724;2022-12-18T10:42:33;-1.70;99.90
30628;DHT22;17394;50.890;4.724;2022-12-18T10:45:15;-1.60;99.90
30628;DHT22;17394;50.890;4.724;2022-12-18T10:47:45;-1.60;99.90
30628;DHT22;17394;50.890;4.724;2022-12-18T10:50:29;-1.50;99.90
30628;DHT22;17394;50.890;4.724;2022-12-18T10:52:58;-1.50;99.90
30628;DHT22;17394;50.890;4.724;2022-12-18T10:55:29;-1.40;99.90
30628;DHT22;17394;50.890;4.724;2022-12-18T11:01:17;-1.20;99.90
30628;DHT22;17394;50.890;4.724;2022-12-18T11:04:00;-1.10;99.90
30628;DHT22;17394;50.890;4.724;2022-12-18T11:06:27;-1.00;99.90
30628;DHT22;17394;50.890;4.724;2022-12-18T11:09:02;-1.00;99.90
30628;DHT22;17394;50.890;4.724;2022-12-18T11:11:28;-0.80;99.90
30628;DHT22;17394;50.890;4.724;2022-12-18T11:14:15;-0.80;99.90
30628;DHT22;17394;50.890;4.724;2022-12-18T11:16:47;-0.80;99.90
30628;DHT22;17394;50.890;4.724;2022-12-18T11:21:58;-0.60;99.90
30628;DHT22;17394;50.890;4.724;2022-12-18T11:24:33;-0.60;99.90
30628;DHT22;17394;50.890;4.724;2022-12-18T11:27:17;-0.50;99.90
30628;DHT22;17394;50.890;4.724;2022-12-18T11:29:43;-0.50;99.90
30628;DHT22;17394;50.890;4.724;2022-12-18T11:32:29;-0.40;99.90
30628;DHT22;17394;50.890;4.724;2022-12-18T11:35:11;-0.40;99.90
30628;DHT22;17394;50.890;4.724;2022-12-18T11:37:41;-0.30;99.90
30628;DHT22;17394;50.890;4.724;2022-12-18T11:40:19;-0.30;99.90
30628;DHT22;17394;50.890;4.724;2022-12-18T11:42:50;-0.20;99.90
30628;DHT22;17394;50.890;4.724;2022-12-18T11:45:33;-0.20;99.90
30628;DHT22;17394;50.890;4.724;2022-12-18T11:48:34;-0.10;99.90
30628;DHT22;17394;50.890;4.724;2022-12-18T11:51:05;-0.10;99.90
30628;DHT22;17394;50.890;4.724;2022-12-18T11:53:34;-0.10;99.90
30628;DHT22;17394;50.890;4.724;2022-12-18T11:56:39;-0.10;99.90
30628;DHT22;17394;50.890;4.724;2022-12-18T12:01:58;-0.10;99.90
30628;DHT22;17394;50.890;4.724;2022-12-18T12:13:16;0.10;99.90
30628;DHT22;17394;50.890;4.724;2022-12-18T12:21:36;0.20;99.90
30628;DHT22;17394;50.890;4.724;2022-12-18T12:29:51;0.30;99.90
30628;DHT22;17394;50.890;4.724;2022-12-18T12:35:27;0.30;99.90
30628;DHT22;17394;50.890;4.724;2022-12-18T12:40:36;0.40;99.90
30628;DHT22;17394;50.890;4.724;2022-12-18T12:43:11;0.40;99.90
30628;DHT22;17394;50.890;4.724;2022-12-18T12:46:10;0.40;99.90
30628;DHT22;17394;50.890;4.724;2022-12-18T12:48:47;0.50;99.90
30628;DHT22;17394;50.890;4.724;2022-12-18T12:51:20;0.50;99.90
30628;DHT22;17394;50.890;4.724;2022-12-18T12:53:47;0.60;99.90
30628;DHT22;17394;50.890;4.724;2022-12-18T12:56:15;0.60;99.90
30628;DHT22;17394;50.890;4.724;2022-12-18T12:58:53;0.70;99.90
30628;DHT22;17394;50.890;4.724;2022-12-18T13:04:19;0.80;99.90
30628;DHT22;17394;50.890;4.724;2022-12-18T13:06:53;0.90;99.90
30628;DHT22;17394;50.890;4.724;2022-12-18T13:09:22;0.90;99.90
30628;DHT22;17394;50.890;4.724;2022-12-18T13:11:48;1.00;99.90
30628;DHT22;17394;50.890;4.724;2022-12-18T13:14:37;1.00;99.90
30628;DHT22;17394;50.890;4.724;2022-12-18T13:20:10;1.10;99.90
30628;DHT22;17394;50.890;4.724;2022-12-18T13:22:46;1.10;99.90
30628;DHT22;17394;50.890;4.724;2022-12-18T13:25:33;1.10;99.90
30628;DHT22;17394;50.890;4.724;2022-12-18T13:41:02;1.10;99.90
30628;DHT22;17394;50.890;4.724;2022-12-18T13:43:39;1.10;99.90
30628;DHT22;17394;50.890;4.724;2022-12-18T13:46:42;1.10;99.90
30628;DHT22;17394;50.890;4.724;2022-12-18T13:51:48;1.10;99.90
30628;DHT22;17394;50.890;4.724;2022-12-18T13:54:39;1.00;99.90
30628;DHT22;17394;50.890;4.724;2022-12-18T13:57:26;1.00;99.90
30628;DHT22;17394;50.890;4.724;2022-12-18T13:59:52;1.00;99.90
30628;DHT22;17394;50.890;4.724;2022-12-18T14:02:21;1.00;99.90
30628;DHT22;17394;50.890;4.724;2022-12-18T14:04:48;0.90;99.90
30628;DHT22;17394;50.890;4.724;2022-12-18T14:07:26;0.90;99.90
30628;DHT22;17394;50.890;4.724;2022-12-18T14:09:55;0.90;99.90
30628;DHT22;17394;50.890;4.724;2022-12-18T14:12:28;0.90;99.90
30628;DHT22;17394;50.890;4.724;2022-12-18T14:20:47;0.80;99.90
30628;DHT22;17394;50.890;4.724;2022-12-18T14:23:39;0.80;99.90
30628;DHT22;17394;50.890;4.724;2022-12-18T14:28:51;0.80;99.90
30628;DHT22;17394;50.890;4.724;2022-12-18T14:31:24;0.70;99.90
30628;DHT22;17394;50.890;4.724;2022-12-18T14:33:51;0.70;99.90
30628;DHT22;17394;50.890;4.724;2022-12-18T14:36:28;0.70;99.90
30628;DHT22;17394;50.890;4.724;2022-12-18T14:38:56;0.70;99.90
30628;DHT22;17394;50.890;4.724;2022-12-18T14:41:23;0.70;99.90
30628;DHT22;17394;50.890;4.724;2022-12-18T14:43:51;0.70;99.90
30628;DHT22;17394;50.890;4.724;2022-12-18T14:46:38;0.70;99.90
30628;DHT22;17394;50.890;4.724;2022-12-18T14:49:25;0.70;99.90
30628;DHT22;17394;50.890;4.724;2022-12-18T14:51:54;0.70;99.90
30628;DHT22;17394;50.890;4.724;2022-12-18T14:54:21;0.60;99.90
30628;DHT22;17394;50.890;4.724;2022-12-18T14:56:56;0.60;99.90
30628;DHT22;17394;50.890;4.724;2022-12-18T14:59:25;0.60;99.90
30628;DHT22;17394;50.890;4.724;2022-12-18T15:04:29;0.60;99.90
30628;DHT22;17394;50.890;4.724;2022-12-18T15:09:38;0.60;99.90
30628;DHT22;17394;50.890;4.724;2022-12-18T15:12:05;0.50;99.90
30628;DHT22;17394;50.890;4.724;2022-12-18T15:14:43;0.60;99.90
30628;DHT22;17394;50.890;4.724;2022-12-18T15:17:21;0.50;99.90
30628;DHT22;17394;50.890;4.724;2022-12-18T15:19:49;0.50;99.90
30628;DHT22;17394;50.890;4.724;2022-12-18T15:22:21;0.50;99.90
30628;DHT22;17394;50.890;4.724;2022-12-18T15:24:47;0.50;99.90
30628;DHT22;17394;50.890;4.724;2022-12-18T15:27:27;0.50;99.90
30628;DHT22;17394;50.890;4.724;2022-12-18T15:32:34;0.50;99.90
30628;DHT22;17394;50.890;4.724;2022-12-18T15:35:18;0.50;99.90
30628;DHT22;17394;50.890;4.724;2022-12-18T15:37:44;0.50;99.90
30628;DHT22;17394;50.890;4.724;2022-12-18T15:40:19;0.50;99.90
30628;DHT22;17394;50.890;4.724;2022-12-18T15:42:45;0.50;99.90
30628;DHT22;17394;50.890;4.724;2022-12-18T15:45:29;0.50;99.90
30628;DHT22;17394;50.890;4.724;2022-12-18T15:47:55;0.50;99.90
30628;DHT22;17394;50.890;4.724;2022-12-18T15:50:21;0.40;99.90
30628;DHT22;17394;50.890;4.724;2022-12-18T15:52:49;0.40;99.90
30628;DHT22;17394;50.890;4.724;2022-12-18T15:55:22;0.40;99.90
30628;DHT22;17394;50.890;4.724;2022-12-18T15:58:07;0.40;99.90
30628;DHT22;17394;50.890;4.724;2022-12-18T16:00:35;0.40;99.90
30628;DHT22;17394;50.890;4.724;2022-12-18T16:03:02;0.50;99.90
30628;DHT22;17394;50.890;4.724;2022-12-18T16:05:28;0.40;99.90
30628;DHT22;17394;50.890;4.724;2022-12-18T16:07:54;0.40;99.90
30628;DHT22;17394;50.890;4.724;2022-12-18T16:10:20;0.50;99.90
30628;DHT22;17394;50.890;4.724;2022-12-18T16:12:48;0.50;99.90
30628;DHT22;17394;50.890;4.724;2022-12-18T16:15:14;0.50;99.90
30628;DHT22;17394;50.890;4.724;2022-12-18T16:17:42;0.60;99.90
30628;DHT22;17394;50.890;4.724;2022-12-18T16:20:17;0.60;99.90
30628;DHT22;17394;50.890;4.724;2022-12-18T16:22:44;0.60;99.90
30628;DHT22;17394;50.890;4.724;2022-12-18T16:25:29;0.60;99.90
30628;DHT22;17394;50.890;4.724;2022-12-18T16:27:55;0.60;99.90
30628;DHT22;17394;50.890;4.724;2022-12-18T16:30:29;0.60;99.90
30628;DHT22;17394;50.890;4.724;2022-12-18T16:32:59;0.60;99.90
30628;DHT22;17394;50.890;4.724;2022-12-18T16:35:25;0.60;99.90
30628;DHT22;17394;50.890;4.724;2022-12-18T16:37:51;0.60;99.90
30628;DHT22;17394;50.890;4.724;2022-12-18T16:40:18;0.60;99.90
30628;DHT22;17394;50.890;4.724;2022-12-18T16:42:45;0.60;99.90
30628;DHT22;17394;50.890;4.724;2022-12-18T16:45:13;0.60;99.90
30628;DHT22;17394;50.890;4.724;2022-12-18T16:47:40;0.60;99.90
30628;DHT22;17394;50.890;4.724;2022-12-18T16:50:06;0.60;99.90
30628;DHT22;17394;50.890;4.724;2022-12-18T16:52:33;0.70;99.90
30628;DHT22;17394;50.890;4.724;2022-12-18T16:54:59;0.70;99.90
30628;DHT22;17394;50.890;4.724;2022-12-18T16:57:25;0.70;99.90
30628;DHT22;17394;50.890;4.724;2022-12-18T16:59:51;0.70;99.90
30628;DHT22;17394;50.890;4.724;2022-12-18T17:02:25;0.60;99.90
30628;DHT22;17394;50.890;4.724;2022-12-18T17:04:58;0.70;99.90
30628;DHT22;17394;50.890;4.724;2022-12-18T17:07:25;0.70;99.90
30628;DHT22;17394;50.890;4.724;2022-12-18T17:09:51;0.70;99.90
30628;DHT22;17394;50.890;4.724;2022-12-18T17:12:19;0.80;99.90
30628;DHT22;17394;50.890;4.724;2022-12-18T17:14:44;0.70;99.90
30628;DHT22;17394;50.890;4.724;2022-12-18T17:17:10;0.80;99.90
30628;DHT22;17394;50.890;4.724;2022-12-18T17:19:36;0.80;99.90
30628;DHT22;17394;50.890;4.724;2022-12-18T17:22:03;0.80;99.90
30628;DHT22;17394;50.890;4.724;2022-12-18T17:24:29;0.80;99.90
30628;DHT22;17394;50.890;4.724;2022-12-18T17:26:55;0.80;99.90
30628;DHT22;17394;50.890;4.724;2022-12-18T17:29:20;0.80;99.90
30628;DHT22;17394;50.890;4.724;2022-12-18T17:31:47;0.90;99.90
30628;DHT22;17394;50.890;4.724;2022-12-18T17:34:13;0.90;99.90
30628;DHT22;17394;50.890;4.724;2022-12-18T17:36:39;0.90;99.90
30628;DHT22;17394;50.890;4.724;2022-12-18T17:39:10;0.90;99.90
30628;DHT22;17394;50.890;4.724;2022-12-18T17:41:39;0.90;99.90
30628;DHT22;17394;50.890;4.724;2022-12-18T17:44:05;0.90;99.90
30628;DHT22;17394;50.890;4.724;2022-12-18T17:46:32;0.90;99.90
30628;DHT22;17394;50.890;4.724;2022-12-18T17:49:00;0.90;99.90
30628;DHT22;17394;50.890;4.724;2022-12-18T17:51:27;0.90;99.90